SVR0301 RJCN-UHWW
Flight info
| Callsign | SVR0301 |
|---|---|
| Flight time | 1h 47m |
| Altitude | 36000 |
| Route | NSE Y109 TBE DCT BG DCT DAGES |
| Aircraft | A320/M-SDE3FGHIRWY/LB1 |
Departure
| Time | 2026-04-14 10:19 |
|---|---|
| Airport | Nakashibetsu Airport (RJCN) |
Arrival
| Time | 2026-04-14 12:06 |
|---|---|
| Airport | Vladivostok International Airport (UHWW) |
| Time | Latitude | Longitude | Altitude | Speed | Heading |
|---|---|---|---|---|---|
| 2026-04-14 09:59 | 43.57339 | 144.95529 | 224 ft | 0 kts | 160° |
| 2026-04-14 10:11 | 43.57341 | 144.95529 | 224 ft | 2 kts | 160° |
| 2026-04-14 10:11 | 43.57366 | 144.95517 | 224 ft | 4 kts | 160° |
| 2026-04-14 10:11 | 43.57390 | 144.95506 | 224 ft | 4 kts | 170° |
| 2026-04-14 10:11 | 43.57416 | 144.95505 | 225 ft | 4 kts | 199° |
| 2026-04-14 10:12 | 43.57436 | 144.95523 | 224 ft | 4 kts | 249° |
| 2026-04-14 10:12 | 43.57436 | 144.95553 | 225 ft | 4 kts | 314° |
| 2026-04-14 10:12 | 43.57433 | 144.95557 | 226 ft | 0 kts | 323° |
| 2026-04-14 10:15 | 43.57441 | 144.95550 | 224 ft | 3 kts | 323° |
| 2026-04-14 10:16 | 43.57474 | 144.95525 | 224 ft | 8 kts | 339° |
| 2026-04-14 10:16 | 43.57544 | 144.95493 | 225 ft | 13 kts | 341° |
| 2026-04-14 10:16 | 43.57599 | 144.95408 | 226 ft | 14 kts | 268° |
| 2026-04-14 10:16 | 43.57565 | 144.95266 | 228 ft | 17 kts | 250° |
| 2026-04-14 10:17 | 43.57522 | 144.95096 | 228 ft | 21 kts | 251° |
| 2026-04-14 10:17 | 43.57466 | 144.94918 | 227 ft | 16 kts | 224° |
| 2026-04-14 10:17 | 43.57444 | 144.94824 | 227 ft | 9 kts | 333° |
| 2026-04-14 10:17 | 43.57473 | 144.94893 | 227 ft | 9 kts | 79° |
| 2026-04-14 10:18 | 43.57478 | 144.94915 | 227 ft | 2 kts | 71° |
| 2026-04-14 10:18 | 43.57575 | 144.95303 | 227 ft | 88 kts | 71° |
| 2026-04-14 10:18 | 43.57866 | 144.96462 | 287 ft | 157 kts | 70° |
| 2026-04-14 10:19 | 43.58218 | 144.97916 | 1035 ft | 164 kts | 70° |
| 2026-04-14 10:19 | 43.58595 | 144.99397 | 1909 ft | 165 kts | 67° |
| 2026-04-14 10:19 | 43.59005 | 145.00962 | 2283 ft | 184 kts | 66° |
| 2026-04-14 10:19 | 43.59467 | 145.02717 | 2616 ft | 205 kts | 66° |
| 2026-04-14 10:20 | 43.59971 | 145.04653 | 2967 ft | 224 kts | 67° |
| 2026-04-14 10:20 | 43.60520 | 145.06769 | 3358 ft | 246 kts | 67° |
| 2026-04-14 10:20 | 43.61272 | 145.08997 | 3837 ft | 263 kts | 49° |
| 2026-04-14 10:20 | 43.62667 | 145.10605 | 4581 ft | 264 kts | 20° |
| 2026-04-14 10:21 | 43.64439 | 145.11121 | 5404 ft | 260 kts | 351° |
| 2026-04-14 10:21 | 43.66139 | 145.10452 | 6277 ft | 253 kts | 324° |
| 2026-04-14 10:21 | 43.67403 | 145.08832 | 7124 ft | 248 kts | 299° |
| 2026-04-14 10:21 | 43.68062 | 145.06664 | 8037 ft | 245 kts | 286° |
| 2026-04-14 10:22 | 43.68576 | 145.04413 | 8996 ft | 246 kts | 287° |
| 2026-04-14 10:22 | 43.69091 | 145.02152 | 9917 ft | 248 kts | 287° |
| 2026-04-14 10:22 | 43.69622 | 144.99845 | 10487 ft | 261 kts | 288° |
| 2026-04-14 10:22 | 43.70198 | 144.97346 | 10735 ft | 285 kts | 288° |
| 2026-04-14 10:23 | 43.70823 | 144.94652 | 11127 ft | 300 kts | 288° |
| 2026-04-14 10:23 | 43.71465 | 144.91876 | 11854 ft | 304 kts | 288° |
| 2026-04-14 10:23 | 43.72110 | 144.89084 | 12658 ft | 305 kts | 288° |
| 2026-04-14 10:23 | 43.72746 | 144.86314 | 13415 ft | 307 kts | 288° |
| 2026-04-14 10:24 | 43.73394 | 144.83479 | 14158 ft | 309 kts | 288° |
| 2026-04-14 10:24 | 43.74046 | 144.80630 | 14865 ft | 311 kts | 288° |
| 2026-04-14 10:24 | 43.74702 | 144.77760 | 15533 ft | 314 kts | 288° |
| 2026-04-14 10:24 | 43.75363 | 144.74865 | 16213 ft | 316 kts | 287° |
| 2026-04-14 10:25 | 43.76025 | 144.71960 | 16870 ft | 318 kts | 287° |
| 2026-04-14 10:25 | 43.76696 | 144.69024 | 17542 ft | 321 kts | 287° |
| 2026-04-14 10:25 | 43.77371 | 144.66069 | 18227 ft | 324 kts | 287° |
| 2026-04-14 10:25 | 43.78050 | 144.63083 | 18824 ft | 327 kts | 287° |
| 2026-04-14 10:26 | 43.78723 | 144.60114 | 19412 ft | 329 kts | 287° |
| 2026-04-14 10:26 | 43.79412 | 144.57071 | 20004 ft | 331 kts | 287° |
| 2026-04-14 10:26 | 43.80102 | 144.54017 | 20595 ft | 333 kts | 287° |
| 2026-04-14 10:26 | 43.80799 | 144.50945 | 21168 ft | 335 kts | 287° |
| 2026-04-14 10:27 | 43.81500 | 144.47858 | 21727 ft | 337 kts | 287° |
| 2026-04-14 10:27 | 43.82205 | 144.44745 | 22273 ft | 339 kts | 286° |
| 2026-04-14 10:27 | 43.82909 | 144.41615 | 22798 ft | 342 kts | 286° |
| 2026-04-14 10:27 | 43.83618 | 144.38454 | 23346 ft | 344 kts | 286° |
| 2026-04-14 10:28 | 43.84332 | 144.35286 | 23791 ft | 346 kts | 286° |
| 2026-04-14 10:28 | 43.85047 | 144.32106 | 24241 ft | 346 kts | 286° |
| 2026-04-14 10:28 | 43.85761 | 144.28919 | 24679 ft | 347 kts | 286° |
| 2026-04-14 10:28 | 43.86472 | 144.25720 | 25098 ft | 347 kts | 286° |
| 2026-04-14 10:29 | 43.87173 | 144.22557 | 25504 ft | 348 kts | 286° |
| 2026-04-14 10:29 | 43.87887 | 144.19344 | 25912 ft | 349 kts | 286° |
| 2026-04-14 10:29 | 43.88476 | 144.16074 | 26317 ft | 350 kts | 279° |
| 2026-04-14 10:29 | 43.88686 | 144.12707 | 26706 ft | 351 kts | 275° |
| 2026-04-14 10:30 | 43.88842 | 144.09324 | 27089 ft | 352 kts | 275° |
| 2026-04-14 10:30 | 43.88998 | 144.05934 | 27467 ft | 353 kts | 275° |
| 2026-04-14 10:30 | 43.89154 | 144.02527 | 27838 ft | 354 kts | 275° |
| 2026-04-14 10:30 | 43.89310 | 143.99102 | 28198 ft | 355 kts | 275° |
| 2026-04-14 10:31 | 43.89467 | 143.95680 | 28553 ft | 356 kts | 275° |
| 2026-04-14 10:31 | 43.89623 | 143.92253 | 28927 ft | 357 kts | 275° |
| 2026-04-14 10:31 | 43.89778 | 143.88812 | 29237 ft | 358 kts | 275° |
| 2026-04-14 10:31 | 43.89932 | 143.85409 | 29530 ft | 359 kts | 275° |
| 2026-04-14 10:32 | 43.90090 | 143.81947 | 29781 ft | 360 kts | 275° |
| 2026-04-14 10:32 | 43.90246 | 143.78475 | 30039 ft | 361 kts | 274° |
| 2026-04-14 10:32 | 43.90398 | 143.75002 | 30334 ft | 360 kts | 275° |
| 2026-04-14 10:32 | 43.90547 | 143.71549 | 30649 ft | 358 kts | 274° |
| 2026-04-14 10:33 | 43.90694 | 143.68098 | 30978 ft | 357 kts | 274° |
| 2026-04-14 10:33 | 43.90841 | 143.64658 | 31270 ft | 357 kts | 275° |
| 2026-04-14 10:33 | 43.90990 | 143.61215 | 31563 ft | 357 kts | 275° |
| 2026-04-14 10:33 | 43.91139 | 143.57777 | 31832 ft | 356 kts | 275° |
| 2026-04-14 10:34 | 43.91436 | 143.50922 | 32429 ft | 355 kts | 275° |
| 2026-04-14 10:34 | 43.91578 | 143.47547 | 32701 ft | 355 kts | 275° |
| 2026-04-14 10:34 | 43.91717 | 143.44131 | 32986 ft | 355 kts | 274° |
| 2026-04-14 10:35 | 43.91855 | 143.40716 | 33273 ft | 354 kts | 275° |
| 2026-04-14 10:35 | 43.91995 | 143.37302 | 33572 ft | 354 kts | 275° |
| 2026-04-14 10:35 | 43.92137 | 143.33890 | 33891 ft | 354 kts | 275° |
| 2026-04-14 10:35 | 43.92278 | 143.30476 | 34090 ft | 355 kts | 274° |
| 2026-04-14 10:36 | 43.92417 | 143.27045 | 34280 ft | 356 kts | 274° |
| 2026-04-14 10:36 | 43.92554 | 143.23610 | 34516 ft | 357 kts | 274° |
| 2026-04-14 10:36 | 43.92688 | 143.20163 | 34708 ft | 358 kts | 274° |
| 2026-04-14 10:36 | 43.92821 | 143.16712 | 34915 ft | 358 kts | 274° |
| 2026-04-14 10:37 | 43.92953 | 143.13258 | 35123 ft | 358 kts | 274° |
| 2026-04-14 10:37 | 43.93083 | 143.09802 | 35308 ft | 359 kts | 274° |
| 2026-04-14 10:37 | 43.93211 | 143.06380 | 35470 ft | 360 kts | 274° |
| 2026-04-14 10:37 | 43.93341 | 143.02904 | 35641 ft | 361 kts | 274° |
| 2026-04-14 10:38 | 43.93472 | 142.99414 | 35799 ft | 363 kts | 274° |
| 2026-04-14 10:38 | 43.93603 | 142.95917 | 35967 ft | 363 kts | 274° |
| 2026-04-14 10:38 | 43.93735 | 142.92413 | 36091 ft | 364 kts | 274° |
| 2026-04-14 10:39 | 43.93992 | 142.85373 | 36118 ft | 366 kts | 274° |
| 2026-04-14 10:39 | 43.94247 | 142.78316 | 36133 ft | 366 kts | 274° |
| 2026-04-14 10:40 | 43.94492 | 142.71257 | 36129 ft | 365 kts | 274° |
| 2026-04-14 10:40 | 43.94734 | 142.64211 | 36135 ft | 365 kts | 274° |
| 2026-04-14 10:41 | 43.94973 | 142.57212 | 36132 ft | 365 kts | 274° |
| 2026-04-14 10:41 | 43.95212 | 142.50168 | 36135 ft | 366 kts | 274° |
| 2026-04-14 10:42 | 43.95438 | 142.43118 | 36125 ft | 366 kts | 274° |
| 2026-04-14 10:42 | 43.95664 | 142.36068 | 36104 ft | 366 kts | 274° |
| 2026-04-14 10:43 | 43.95887 | 142.29025 | 36115 ft | 365 kts | 274° |
| 2026-04-14 10:43 | 43.96107 | 142.21980 | 36147 ft | 365 kts | 274° |
| 2026-04-14 10:44 | 43.96320 | 142.14981 | 36152 ft | 365 kts | 274° |
| 2026-04-14 10:44 | 43.96532 | 142.07949 | 36147 ft | 364 kts | 274° |
| 2026-04-14 10:45 | 43.96739 | 142.00921 | 36149 ft | 364 kts | 273° |
| 2026-04-14 10:45 | 43.96904 | 141.95078 | 36148 ft | 365 kts | 273° |
| 2026-04-14 10:46 | 43.97097 | 141.87996 | 36144 ft | 365 kts | 273° |
| 2026-04-14 10:46 | 43.97285 | 141.80993 | 36125 ft | 365 kts | 273° |
| 2026-04-14 10:47 | 43.97469 | 141.73949 | 36129 ft | 365 kts | 273° |
| 2026-04-14 10:47 | 43.97654 | 141.66917 | 36159 ft | 364 kts | 273° |
| 2026-04-14 10:48 | 43.97837 | 141.59887 | 36150 ft | 364 kts | 273° |
| 2026-04-14 10:48 | 43.98011 | 141.52849 | 36146 ft | 364 kts | 273° |
| 2026-04-14 10:49 | 43.98178 | 141.45826 | 36143 ft | 364 kts | 273° |
| 2026-04-14 10:49 | 43.98341 | 141.38793 | 36140 ft | 364 kts | 273° |
| 2026-04-14 10:50 | 43.98508 | 141.31814 | 36113 ft | 364 kts | 273° |
| 2026-04-14 10:50 | 43.98663 | 141.24781 | 36119 ft | 364 kts | 272° |
| 2026-04-14 10:51 | 43.98817 | 141.17767 | 36122 ft | 363 kts | 272° |
| 2026-04-14 10:51 | 43.98969 | 141.10756 | 36149 ft | 363 kts | 272° |
| 2026-04-14 10:52 | 43.99114 | 141.03740 | 36141 ft | 363 kts | 272° |
| 2026-04-14 10:52 | 43.99254 | 140.96722 | 36134 ft | 363 kts | 272° |
| 2026-04-14 10:53 | 43.99391 | 140.89760 | 36130 ft | 363 kts | 272° |
| 2026-04-14 10:53 | 43.99521 | 140.82758 | 36104 ft | 363 kts | 272° |
| 2026-04-14 10:54 | 43.99640 | 140.75749 | 36110 ft | 363 kts | 272° |
| 2026-04-14 10:54 | 43.99763 | 140.68730 | 36115 ft | 363 kts | 272° |
| 2026-04-14 10:55 | 43.99889 | 140.61719 | 36113 ft | 363 kts | 272° |
| 2026-04-14 10:55 | 44.00003 | 140.54737 | 36133 ft | 363 kts | 272° |
| 2026-04-14 10:56 | 44.00113 | 140.47713 | 36134 ft | 364 kts | 272° |
| 2026-04-14 10:56 | 44.00217 | 140.40680 | 36133 ft | 364 kts | 272° |
| 2026-04-14 10:57 | 44.00321 | 140.33652 | 36132 ft | 364 kts | 272° |
| 2026-04-14 10:57 | 44.00418 | 140.26622 | 36129 ft | 364 kts | 272° |
| 2026-04-14 10:58 | 44.00510 | 140.19640 | 36128 ft | 364 kts | 272° |
| 2026-04-14 10:58 | 44.00596 | 140.12610 | 36127 ft | 364 kts | 272° |
| 2026-04-14 10:59 | 44.00679 | 140.05571 | 36128 ft | 364 kts | 272° |
| 2026-04-14 10:59 | 44.00758 | 139.98524 | 36129 ft | 364 kts | 272° |
| 2026-04-14 11:00 | 44.00833 | 139.91486 | 36109 ft | 364 kts | 272° |
| 2026-04-14 11:00 | 44.00908 | 139.84447 | 36101 ft | 363 kts | 272° |
| 2026-04-14 11:01 | 44.00972 | 139.77464 | 36119 ft | 363 kts | 271° |
| 2026-04-14 11:01 | 44.01032 | 139.70444 | 36112 ft | 363 kts | 271° |
| 2026-04-14 11:02 | 44.01093 | 139.63430 | 36115 ft | 363 kts | 271° |
| 2026-04-14 11:02 | 44.01148 | 139.56414 | 36119 ft | 363 kts | 271° |
| 2026-04-14 11:03 | 44.01202 | 139.49393 | 36124 ft | 363 kts | 271° |
| 2026-04-14 11:03 | 44.01246 | 139.42417 | 36142 ft | 364 kts | 271° |
| 2026-04-14 11:04 | 44.01283 | 139.35383 | 36107 ft | 364 kts | 271° |
| 2026-04-14 11:04 | 44.01321 | 139.28346 | 36113 ft | 364 kts | 271° |
| 2026-04-14 11:05 | 44.01358 | 139.21300 | 36118 ft | 365 kts | 271° |
| 2026-04-14 11:05 | 44.01389 | 139.14254 | 36122 ft | 365 kts | 271° |
| 2026-04-14 11:06 | 44.01413 | 139.07200 | 36126 ft | 365 kts | 271° |
| 2026-04-14 11:06 | 44.01433 | 139.00201 | 36122 ft | 365 kts | 271° |
| 2026-04-14 11:07 | 44.01450 | 138.93160 | 36124 ft | 364 kts | 271° |
| 2026-04-14 11:07 | 44.01455 | 138.86114 | 36123 ft | 364 kts | 271° |
| 2026-04-14 11:08 | 44.01452 | 138.79071 | 36110 ft | 364 kts | 271° |
| 2026-04-14 11:08 | 44.01455 | 138.72027 | 36110 ft | 365 kts | 271° |
| 2026-04-14 11:09 | 44.01458 | 138.64973 | 36116 ft | 365 kts | 271° |
| 2026-04-14 11:09 | 44.01451 | 138.57914 | 36119 ft | 365 kts | 271° |
| 2026-04-14 11:10 | 44.01429 | 138.47324 | 36121 ft | 366 kts | 271° |
| 2026-04-14 11:10 | 44.01417 | 138.40303 | 36098 ft | 365 kts | 271° |
| 2026-04-14 11:11 | 44.01396 | 138.33232 | 36116 ft | 365 kts | 270° |
| 2026-04-14 11:11 | 44.01366 | 138.26170 | 36115 ft | 366 kts | 270° |
| 2026-04-14 11:12 | 44.01336 | 138.19102 | 36118 ft | 366 kts | 270° |
| 2026-04-14 11:12 | 44.01304 | 138.12028 | 36120 ft | 366 kts | 270° |
| 2026-04-14 11:13 | 44.01270 | 138.04955 | 36120 ft | 366 kts | 270° |
| 2026-04-14 11:13 | 44.01219 | 137.97924 | 36121 ft | 366 kts | 270° |
| 2026-04-14 11:14 | 44.01168 | 137.90844 | 36103 ft | 366 kts | 270° |
| 2026-04-14 11:14 | 44.01119 | 137.83768 | 36101 ft | 366 kts | 270° |
| 2026-04-14 11:15 | 44.01064 | 137.76697 | 36126 ft | 366 kts | 270° |
| 2026-04-14 11:15 | 44.00998 | 137.69623 | 36118 ft | 366 kts | 270° |
| 2026-04-14 11:16 | 44.00932 | 137.62545 | 36114 ft | 366 kts | 270° |
| 2026-04-14 11:16 | 44.00867 | 137.55462 | 36112 ft | 366 kts | 270° |
| 2026-04-14 11:17 | 44.00798 | 137.48379 | 36113 ft | 367 kts | 270° |
| 2026-04-14 11:17 | 44.00722 | 137.41286 | 36086 ft | 367 kts | 270° |
| 2026-04-14 11:18 | 44.00639 | 137.34240 | 36095 ft | 368 kts | 270° |
| 2026-04-14 11:18 | 44.00552 | 137.27126 | 36095 ft | 368 kts | 270° |
| 2026-04-14 11:19 | 44.00459 | 137.20020 | 36123 ft | 368 kts | 270° |
| 2026-04-14 11:19 | 44.00360 | 137.12914 | 36120 ft | 368 kts | 270° |
| 2026-04-14 11:20 | 44.00259 | 137.05855 | 36116 ft | 368 kts | 270° |
| 2026-04-14 11:20 | 44.00158 | 136.98755 | 36112 ft | 368 kts | 269° |
| 2026-04-14 11:21 | 44.00045 | 136.91646 | 36084 ft | 368 kts | 269° |
| 2026-04-14 11:21 | 43.99936 | 136.84529 | 36091 ft | 369 kts | 269° |
| 2026-04-14 11:22 | 43.99816 | 136.77398 | 36095 ft | 369 kts | 269° |
| 2026-04-14 11:22 | 43.99685 | 136.70315 | 36098 ft | 369 kts | 269° |
| 2026-04-14 11:23 | 43.99557 | 136.63182 | 36118 ft | 369 kts | 269° |
| 2026-04-14 11:23 | 43.99432 | 136.56063 | 36110 ft | 369 kts | 269° |
| 2026-04-14 11:24 | 43.99302 | 136.48942 | 36109 ft | 368 kts | 269° |
| 2026-04-14 11:24 | 43.99156 | 136.41830 | 36084 ft | 369 kts | 269° |
| 2026-04-14 11:25 | 43.99012 | 136.34752 | 36087 ft | 369 kts | 269° |
| 2026-04-14 11:25 | 43.98865 | 136.27628 | 36088 ft | 369 kts | 269° |
| 2026-04-14 11:26 | 43.98718 | 136.20493 | 36096 ft | 370 kts | 269° |
| 2026-04-14 11:26 | 43.98561 | 136.13356 | 36099 ft | 370 kts | 269° |
| 2026-04-14 11:27 | 43.98390 | 136.06218 | 36112 ft | 370 kts | 269° |
| 2026-04-14 11:27 | 43.98225 | 135.99084 | 36107 ft | 370 kts | 269° |
| 2026-04-14 11:28 | 43.98053 | 135.91934 | 36085 ft | 370 kts | 269° |
| 2026-04-14 11:28 | 43.97871 | 135.84788 | 36086 ft | 370 kts | 269° |
| 2026-04-14 11:29 | 43.97685 | 135.77677 | 36095 ft | 371 kts | 269° |
| 2026-04-14 11:29 | 43.97498 | 135.70522 | 36099 ft | 371 kts | 269° |
| 2026-04-14 11:30 | 43.97313 | 135.63357 | 36103 ft | 371 kts | 269° |
| 2026-04-14 11:30 | 43.97123 | 135.56196 | 36106 ft | 371 kts | 269° |
| 2026-04-14 11:31 | 43.96926 | 135.49036 | 36122 ft | 371 kts | 268° |
| 2026-04-14 11:31 | 43.96755 | 135.43083 | 36122 ft | 371 kts | 268° |
| 2026-04-14 11:32 | 43.96543 | 135.35926 | 36117 ft | 371 kts | 268° |
| 2026-04-14 11:32 | 43.96334 | 135.28764 | 36117 ft | 371 kts | 268° |
| 2026-04-14 11:33 | 43.96113 | 135.21608 | 36118 ft | 371 kts | 268° |
| 2026-04-14 11:34 | 43.95781 | 135.10869 | 36121 ft | 371 kts | 268° |
| 2026-04-14 11:34 | 43.95558 | 135.03712 | 36110 ft | 371 kts | 268° |
| 2026-04-14 11:35 | 43.95326 | 134.96596 | 36110 ft | 371 kts | 268° |
| 2026-04-14 11:35 | 43.95086 | 134.89436 | 36115 ft | 371 kts | 268° |
| 2026-04-14 11:36 | 43.94843 | 134.82278 | 36112 ft | 371 kts | 268° |
| 2026-04-14 11:36 | 43.94602 | 134.75131 | 36105 ft | 371 kts | 268° |
| 2026-04-14 11:37 | 43.94350 | 134.67971 | 36100 ft | 371 kts | 268° |
| 2026-04-14 11:37 | 43.94093 | 134.60816 | 36109 ft | 371 kts | 268° |
| 2026-04-14 11:38 | 43.93832 | 134.53655 | 36115 ft | 372 kts | 268° |
| 2026-04-14 11:38 | 43.93575 | 134.46540 | 36093 ft | 372 kts | 268° |
| 2026-04-14 11:39 | 43.93310 | 134.39375 | 36099 ft | 372 kts | 268° |
| 2026-04-14 11:39 | 43.93032 | 134.32211 | 36105 ft | 372 kts | 268° |
| 2026-04-14 11:40 | 43.92750 | 134.25034 | 36114 ft | 372 kts | 268° |
| 2026-04-14 11:40 | 43.92479 | 134.17864 | 36111 ft | 372 kts | 268° |
| 2026-04-14 11:41 | 43.92193 | 134.10691 | 36118 ft | 373 kts | 267° |
| 2026-04-14 11:41 | 43.91897 | 134.03508 | 36119 ft | 373 kts | 268° |
| 2026-04-14 11:42 | 43.91598 | 133.96321 | 35886 ft | 373 kts | 267° |
| 2026-04-14 11:42 | 43.91449 | 133.92781 | 35642 ft | 372 kts | 267° |
| 2026-04-14 11:42 | 43.91297 | 133.89200 | 35396 ft | 371 kts | 267° |
| 2026-04-14 11:42 | 43.91144 | 133.85629 | 35168 ft | 371 kts | 268° |
| 2026-04-14 11:43 | 43.90991 | 133.82051 | 34921 ft | 371 kts | 268° |
| 2026-04-14 11:43 | 43.90841 | 133.78484 | 34681 ft | 370 kts | 268° |
| 2026-04-14 11:43 | 43.90691 | 133.74924 | 34439 ft | 370 kts | 268° |
| 2026-04-14 11:43 | 43.90538 | 133.71371 | 34216 ft | 369 kts | 268° |
| 2026-04-14 11:44 | 43.90380 | 133.67816 | 33956 ft | 369 kts | 268° |
| 2026-04-14 11:44 | 43.90219 | 133.64269 | 33678 ft | 369 kts | 268° |
| 2026-04-14 11:44 | 43.90058 | 133.60720 | 33398 ft | 369 kts | 268° |
| 2026-04-14 11:44 | 43.89900 | 133.57159 | 33125 ft | 370 kts | 268° |
| 2026-04-14 11:45 | 43.89744 | 133.53638 | 32841 ft | 372 kts | 268° |
| 2026-04-14 11:45 | 43.89580 | 133.50006 | 32573 ft | 374 kts | 268° |
| 2026-04-14 11:45 | 43.89415 | 133.46404 | 32310 ft | 375 kts | 267° |
| 2026-04-14 11:45 | 43.89249 | 133.42843 | 31567 ft | 376 kts | 268° |
| 2026-04-14 11:46 | 43.89078 | 133.39216 | 30754 ft | 375 kts | 268° |
| 2026-04-14 11:46 | 43.88906 | 133.35596 | 29782 ft | 377 kts | 267° |
| 2026-04-14 11:46 | 43.88738 | 133.31987 | 29214 ft | 370 kts | 267° |
| 2026-04-14 11:46 | 43.88476 | 133.28481 | 28640 ft | 363 kts | 261° |
| 2026-04-14 11:47 | 43.87813 | 133.25104 | 27963 ft | 363 kts | 253° |
| 2026-04-14 11:47 | 43.86739 | 133.21940 | 27319 ft | 363 kts | 244° |
| 2026-04-14 11:47 | 43.85365 | 133.19058 | 26695 ft | 362 kts | 241° |
| 2026-04-14 11:47 | 43.83946 | 133.16181 | 26069 ft | 359 kts | 241° |
| 2026-04-14 11:48 | 43.82542 | 133.13324 | 25443 ft | 357 kts | 240° |
| 2026-04-14 11:48 | 43.81157 | 133.10496 | 24846 ft | 354 kts | 240° |
| 2026-04-14 11:48 | 43.79777 | 133.07683 | 24251 ft | 352 kts | 240° |
| 2026-04-14 11:48 | 43.78404 | 133.04889 | 23665 ft | 350 kts | 240° |
| 2026-04-14 11:49 | 43.77039 | 133.02111 | 23019 ft | 348 kts | 240° |
| 2026-04-14 11:49 | 43.75686 | 132.99357 | 22476 ft | 344 kts | 240° |
| 2026-04-14 11:49 | 43.74344 | 132.96632 | 21954 ft | 341 kts | 240° |
| 2026-04-14 11:49 | 43.73011 | 132.93929 | 21465 ft | 338 kts | 240° |
| 2026-04-14 11:50 | 43.71695 | 132.91260 | 20985 ft | 334 kts | 240° |
| 2026-04-14 11:50 | 43.70393 | 132.88620 | 20520 ft | 330 kts | 240° |
| 2026-04-14 11:50 | 43.69114 | 132.86035 | 20068 ft | 329 kts | 240° |
| 2026-04-14 11:51 | 43.66566 | 132.80792 | 19213 ft | 327 kts | 244° |
| 2026-04-14 11:51 | 43.65599 | 132.77974 | 18789 ft | 323 kts | 252° |
| 2026-04-14 11:51 | 43.64892 | 132.75040 | 18356 ft | 322 kts | 255° |
| 2026-04-14 11:51 | 43.64190 | 132.72101 | 17882 ft | 322 kts | 255° |
| 2026-04-14 11:52 | 43.63488 | 132.69178 | 17435 ft | 320 kts | 254° |
| 2026-04-14 11:52 | 43.62790 | 132.66274 | 16988 ft | 318 kts | 254° |
| 2026-04-14 11:52 | 43.62095 | 132.63382 | 16543 ft | 316 kts | 254° |
| 2026-04-14 11:52 | 43.61403 | 132.60505 | 16102 ft | 314 kts | 254° |
| 2026-04-14 11:53 | 43.60714 | 132.57650 | 15663 ft | 313 kts | 254° |
| 2026-04-14 11:53 | 43.60029 | 132.54811 | 15182 ft | 311 kts | 253° |
| 2026-04-14 11:53 | 43.59345 | 132.51981 | 14750 ft | 310 kts | 253° |
| 2026-04-14 11:53 | 43.58664 | 132.49168 | 14302 ft | 308 kts | 253° |
| 2026-04-14 11:54 | 43.57982 | 132.46372 | 13843 ft | 307 kts | 253° |
| 2026-04-14 11:54 | 43.57302 | 132.43589 | 13344 ft | 305 kts | 253° |
| 2026-04-14 11:54 | 43.56629 | 132.40826 | 12894 ft | 302 kts | 253° |
| 2026-04-14 11:54 | 43.55972 | 132.38120 | 12441 ft | 300 kts | 253° |
| 2026-04-14 11:55 | 43.55312 | 132.35399 | 11977 ft | 299 kts | 253° |
| 2026-04-14 11:55 | 43.54652 | 132.32684 | 11518 ft | 298 kts | 253° |
| 2026-04-14 11:55 | 43.53993 | 132.29984 | 11055 ft | 296 kts | 253° |
| 2026-04-14 11:55 | 43.53338 | 132.27308 | 10727 ft | 291 kts | 253° |
| 2026-04-14 11:56 | 43.52701 | 132.24720 | 10598 ft | 279 kts | 253° |
| 2026-04-14 11:56 | 43.52091 | 132.22241 | 10424 ft | 269 kts | 253° |
| 2026-04-14 11:56 | 43.51495 | 132.19811 | 10152 ft | 265 kts | 253° |
| 2026-04-14 11:56 | 43.50906 | 132.17419 | 9997 ft | 263 kts | 253° |
| 2026-04-14 11:57 | 43.50315 | 132.15024 | 9863 ft | 263 kts | 253° |
| 2026-04-14 11:57 | 43.49738 | 132.12681 | 9729 ft | 252 kts | 253° |
| 2026-04-14 11:57 | 43.49186 | 132.10441 | 9597 ft | 242 kts | 252° |
| 2026-04-14 11:57 | 43.48493 | 132.08374 | 9403 ft | 236 kts | 243° |
| 2026-04-14 11:58 | 43.47702 | 132.06409 | 9075 ft | 234 kts | 243° |
| 2026-04-14 11:58 | 43.46917 | 132.04455 | 8732 ft | 233 kts | 243° |
| 2026-04-14 11:58 | 43.46134 | 132.02508 | 8380 ft | 232 kts | 243° |
| 2026-04-14 11:58 | 43.45356 | 132.00572 | 8028 ft | 230 kts | 243° |
| 2026-04-14 11:59 | 43.44584 | 131.98652 | 7680 ft | 229 kts | 242° |
| 2026-04-14 11:59 | 43.43816 | 131.96746 | 7339 ft | 227 kts | 242° |
| 2026-04-14 11:59 | 43.43061 | 131.94871 | 6997 ft | 226 kts | 242° |
| 2026-04-14 11:59 | 43.42293 | 131.92966 | 6585 ft | 229 kts | 241° |
| 2026-04-14 12:00 | 43.41509 | 131.91025 | 6196 ft | 229 kts | 241° |
| 2026-04-14 12:00 | 43.40725 | 131.89132 | 5843 ft | 227 kts | 236° |
| 2026-04-14 12:00 | 43.39543 | 131.87748 | 5499 ft | 226 kts | 203° |
| 2026-04-14 12:00 | 43.38017 | 131.87520 | 5137 ft | 228 kts | 169° |
| 2026-04-14 12:01 | 43.36560 | 131.88404 | 4750 ft | 231 kts | 153° |
| 2026-04-14 12:01 | 43.35156 | 131.89482 | 4365 ft | 231 kts | 152° |
| 2026-04-14 12:01 | 43.33754 | 131.90565 | 3982 ft | 231 kts | 152° |
| 2026-04-14 12:01 | 43.32390 | 131.91754 | 3468 ft | 238 kts | 135° |
| 2026-04-14 12:02 | 43.31670 | 131.93746 | 3167 ft | 235 kts | 96° |
| 2026-04-14 12:02 | 43.31952 | 131.95898 | 2921 ft | 230 kts | 64° |
| 2026-04-14 12:02 | 43.32721 | 131.97817 | 2617 ft | 229 kts | 60° |
| 2026-04-14 12:02 | 43.33511 | 131.99711 | 2306 ft | 227 kts | 61° |
| 2026-04-14 12:03 | 43.34274 | 132.01578 | 1997 ft | 223 kts | 62° |
| 2026-04-14 12:03 | 43.35010 | 132.03389 | 1692 ft | 211 kts | 62° |
| 2026-04-14 12:03 | 43.35705 | 132.05103 | 1415 ft | 199 kts | 62° |
| 2026-04-14 12:03 | 43.36356 | 132.06710 | 1151 ft | 186 kts | 62° |
| 2026-04-14 12:04 | 43.36961 | 132.08205 | 876 ft | 171 kts | 62° |
| 2026-04-14 12:04 | 43.37508 | 132.09556 | 671 ft | 153 kts | 61° |
| 2026-04-14 12:04 | 43.38003 | 132.10779 | 460 ft | 145 kts | 61° |
| 2026-04-14 12:04 | 43.38489 | 132.11981 | 266 ft | 142 kts | 61° |
| 2026-04-14 12:05 | 43.38966 | 132.13162 | 88 ft | 140 kts | 60° |
| 2026-04-14 12:05 | 43.39394 | 132.14221 | 69 ft | 111 kts | 60° |
| 2026-04-14 12:05 | 43.39685 | 132.14947 | 64 ft | 62 kts | 61° |
| 2026-04-14 12:05 | 43.39872 | 132.15407 | 59 ft | 51 kts | 60° |
| 2026-04-14 12:06 | 43.40035 | 132.15812 | 63 ft | 46 kts | 61° |
| 2026-04-14 12:06 | 43.40182 | 132.16175 | 68 ft | 41 kts | 61° |
| 2026-04-14 12:06 | 43.40313 | 132.16500 | 67 ft | 38 kts | 60° |
| 2026-04-14 12:06 | 43.40425 | 132.16776 | 65 ft | 22 kts | 65° |
| 2026-04-14 12:07 | 43.40369 | 132.16902 | 64 ft | 13 kts | 148° |
| 2026-04-14 12:07 | 43.40293 | 132.16958 | 68 ft | 11 kts | 152° |
| 2026-04-14 12:07 | 43.40233 | 132.17002 | 66 ft | 9 kts | 152° |
| 2026-04-14 12:07 | 43.40181 | 132.17039 | 64 ft | 8 kts | 152° |
| 2026-04-14 12:08 | 43.40135 | 132.17072 | 61 ft | 7 kts | 153° |
| 2026-04-14 12:08 | 43.40093 | 132.17094 | 66 ft | 6 kts | 174° |
| 2026-04-14 12:08 | 43.40050 | 132.17046 | 67 ft | 11 kts | 241° |
| 2026-04-14 12:08 | 43.40006 | 132.16936 | 64 ft | 16 kts | 242° |
| 2026-04-14 12:09 | 43.39951 | 132.16798 | 66 ft | 14 kts | 241° |
| 2026-04-14 12:09 | 43.39904 | 132.16683 | 65 ft | 14 kts | 241° |
| 2026-04-14 12:09 | 43.39862 | 132.16575 | 68 ft | 10 kts | 241° |
| 2026-04-14 12:09 | 43.39821 | 132.16518 | 64 ft | 8 kts | 195° |
| 2026-04-14 12:10 | 43.39777 | 132.16536 | 67 ft | 5 kts | 151° |
| 2026-04-14 12:10 | 43.39752 | 132.16556 | 65 ft | 3 kts | 151° |
| 2026-04-14 12:10 | 43.39749 | 132.16558 | 67 ft | 0 kts | 152° |